sensor_id;sensor_type;location;lat;lon;timestamp;temperature;humidity
52791;DHT22;41253;46.856;-71.574;2022-08-25T00:01:54;20.50;99.90
52791;DHT22;41253;46.856;-71.574;2022-08-25T00:04:22;20.50;99.90
52791;DHT22;41253;46.856;-71.574;2022-08-25T00:06:49;20.40;99.90
52791;DHT22;41253;46.856;-71.574;2022-08-25T00:09:19;20.30;99.90
52791;DHT22;41253;46.856;-71.574;2022-08-25T00:11:47;20.20;99.90
52791;DHT22;41253;46.856;-71.574;2022-08-25T00:14:23;20.10;99.90
52791;DHT22;41253;46.856;-71.574;2022-08-25T00:16:50;20.10;99.90
52791;DHT22;41253;46.856;-71.574;2022-08-25T00:19:25;20.10;99.90
52791;DHT22;41253;46.856;-71.574;2022-08-25T00:21:51;20.10;99.90
52791;DHT22;41253;46.856;-71.574;2022-08-25T00:24:19;20.10;99.90
52791;DHT22;41253;46.856;-71.574;2022-08-25T00:26:49;20.00;99.90
52791;DHT22;41253;46.856;-71.574;2022-08-25T00:29:17;20.10;99.90
52791;DHT22;41253;46.856;-71.574;2022-08-25T00:31:43;20.10;99.90
52791;DHT22;41253;46.856;-71.574;2022-08-25T00:34:14;20.10;99.90
52791;DHT22;41253;46.856;-71.574;2022-08-25T00:36:42;20.20;99.90
52791;DHT22;41253;46.856;-71.574;2022-08-25T00:39:09;20.10;99.90
52791;DHT22;41253;46.856;-71.574;2022-08-25T00:41:38;20.20;99.90
52791;DHT22;41253;46.856;-71.574;2022-08-25T00:44:07;20.20;99.90
52791;DHT22;41253;46.856;-71.574;2022-08-25T00:46:41;20.10;99.90
52791;DHT22;41253;46.856;-71.574;2022-08-25T00:49:20;20.00;99.90
52791;DHT22;41253;46.856;-71.574;2022-08-25T00:51:51;20.00;99.90
52791;DHT22;41253;46.856;-71.574;2022-08-25T00:54:23;19.90;99.90
52791;DHT22;41253;46.856;-71.574;2022-08-25T00:56:50;19.80;99.90
52791;DHT22;41253;46.856;-71.574;2022-08-25T00:59:19;19.80;99.90
52791;DHT22;41253;46.856;-71.574;2022-08-25T01:01:46;19.80;99.90
52791;DHT22;41253;46.856;-71.574;2022-08-25T01:04:13;19.70;99.90
52791;DHT22;41253;46.856;-71.574;2022-08-25T01:06:41;19.80;99.90
52791;DHT22;41253;46.856;-71.574;2022-08-25T01:09:14;19.70;99.90
52791;DHT22;41253;46.856;-71.574;2022-08-25T01:11:43;19.60;99.90
52791;DHT22;41253;46.856;-71.574;2022-08-25T01:14:12;19.50;99.90
52791;DHT22;41253;46.856;-71.574;2022-08-25T01:16:40;19.50;99.90
52791;DHT22;41253;46.856;-71.574;2022-08-25T01:19:09;19.40;99.90
52791;DHT22;41253;46.856;-71.574;2022-08-25T01:21:44;19.30;99.90
52791;DHT22;41253;46.856;-71.574;2022-08-25T01:24:35;19.10;99.90
52791;DHT22;41253;46.856;-71.574;2022-08-25T01:27:04;19.00;99.90
52791;DHT22;41253;46.856;-71.574;2022-08-25T01:29:31;19.00;99.90
52791;DHT22;41253;46.856;-71.574;2022-08-25T01:32:00;19.00;99.90
52791;DHT22;41253;46.856;-71.574;2022-08-25T01:34:30;18.90;99.90
52791;DHT22;41253;46.856;-71.574;2022-08-25T01:36:58;18.90;99.90
52791;DHT22;41253;46.856;-71.574;2022-08-25T01:39:30;18.80;99.90
52791;DHT22;41253;46.856;-71.574;2022-08-25T01:42:03;18.70;99.90
52791;DHT22;41253;46.856;-71.574;2022-08-25T01:44:39;18.90;99.90
52791;DHT22;41253;46.856;-71.574;2022-08-25T01:47:06;19.00;99.90
52791;DHT22;41253;46.856;-71.574;2022-08-25T01:49:34;19.10;99.90
52791;DHT22;41253;46.856;-71.574;2022-08-25T01:54:38;19.20;99.90
52791;DHT22;41253;46.856;-71.574;2022-08-25T01:57:04;19.20;99.90
52791;DHT22;41253;46.856;-71.574;2022-08-25T01:59:31;19.20;99.90
52791;DHT22;41253;46.856;-71.574;2022-08-25T02:01:58;19.10;99.90
52791;DHT22;41253;46.856;-71.574;2022-08-25T02:04:24;19.10;99.90
52791;DHT22;41253;46.856;-71.574;2022-08-25T02:06:51;19.00;99.90
52791;DHT22;41253;46.856;-71.574;2022-08-25T02:09:18;19.00;99.90
52791;DHT22;41253;46.856;-71.574;2022-08-25T02:11:46;19.10;99.90
52791;DHT22;41253;46.856;-71.574;2022-08-25T02:14:14;19.10;99.90
52791;DHT22;41253;46.856;-71.574;2022-08-25T02:16:43;19.30;99.90
52791;DHT22;41253;46.856;-71.574;2022-08-25T02:19:11;19.10;99.90
52791;DHT22;41253;46.856;-71.574;2022-08-25T02:21:37;19.00;99.90
52791;DHT22;41253;46.856;-71.574;2022-08-25T02:24:04;19.10;99.90
52791;DHT22;41253;46.856;-71.574;2022-08-25T02:26:32;19.10;99.90
52791;DHT22;41253;46.856;-71.574;2022-08-25T02:28:58;18.90;99.90
52791;DHT22;41253;46.856;-71.574;2022-08-25T02:31:26;18.90;99.90
52791;DHT22;41253;46.856;-71.574;2022-08-25T02:33:52;19.00;99.90
52791;DHT22;41253;46.856;-71.574;2022-08-25T02:36:20;19.00;99.90
52791;DHT22;41253;46.856;-71.574;2022-08-25T02:38:46;19.00;99.90
52791;DHT22;41253;46.856;-71.574;2022-08-25T02:41:16;19.00;99.90
52791;DHT22;41253;46.856;-71.574;2022-08-25T02:43:44;19.00;99.90
52791;DHT22;41253;46.856;-71.574;2022-08-25T02:46:11;19.00;99.90
52791;DHT22;41253;46.856;-71.574;2022-08-25T02:48:39;19.00;99.90
52791;DHT22;41253;46.856;-71.574;2022-08-25T02:51:07;18.90;99.90
52791;DHT22;41253;46.856;-71.574;2022-08-25T02:53:34;19.00;99.90
52791;DHT22;41253;46.856;-71.574;2022-08-25T02:56:01;19.00;99.90
52791;DHT22;41253;46.856;-71.574;2022-08-25T02:58:27;19.00;99.90
52791;DHT22;41253;46.856;-71.574;2022-08-25T03:00:54;19.00;99.90
52791;DHT22;41253;46.856;-71.574;2022-08-25T03:03:22;19.00;99.90
52791;DHT22;41253;46.856;-71.574;2022-08-25T03:05:49;19.00;99.90
52791;DHT22;41253;46.856;-71.574;2022-08-25T03:08:15;19.00;99.90
52791;DHT22;41253;46.856;-71.574;2022-08-25T03:10:42;18.80;99.90
52791;DHT22;41253;46.856;-71.574;2022-08-25T03:13:09;18.70;99.90
52791;DHT22;41253;46.856;-71.574;2022-08-25T03:15:35;18.70;99.90
52791;DHT22;41253;46.856;-71.574;2022-08-25T03:18:07;18.60;99.90
52791;DHT22;41253;46.856;-71.574;2022-08-25T03:20:33;18.70;99.90
52791;DHT22;41253;46.856;-71.574;2022-08-25T03:23:01;18.70;99.90
52791;DHT22;41253;46.856;-71.574;2022-08-25T03:25:28;18.80;99.90
52791;DHT22;41253;46.856;-71.574;2022-08-25T03:28:13;18.80;99.90
52791;DHT22;41253;46.856;-71.574;2022-08-25T03:30:41;18.70;99.90
52791;DHT22;41253;46.856;-71.574;2022-08-25T03:33:07;18.80;99.90
52791;DHT22;41253;46.856;-71.574;2022-08-25T03:35:34;18.70;99.90
52791;DHT22;41253;46.856;-71.574;2022-08-25T03:38:00;18.70;99.90
52791;DHT22;41253;46.856;-71.574;2022-08-25T03:40:27;18.50;99.90
52791;DHT22;41253;46.856;-71.574;2022-08-25T03:42:54;18.70;99.90
52791;DHT22;41253;46.856;-71.574;2022-08-25T03:45:22;18.80;99.90
52791;DHT22;41253;46.856;-71.574;2022-08-25T03:47:49;18.80;99.90
52791;DHT22;41253;46.856;-71.574;2022-08-25T03:50:18;18.70;99.90
52791;DHT22;41253;46.856;-71.574;2022-08-25T03:52:50;18.70;99.90
52791;DHT22;41253;46.856;-71.574;2022-08-25T03:55:17;18.70;99.90
52791;DHT22;41253;46.856;-71.574;2022-08-25T03:57:43;18.70;99.90
52791;DHT22;41253;46.856;-71.574;2022-08-25T04:00:10;18.70;99.90
52791;DHT22;41253;46.856;-71.574;2022-08-25T04:02:37;18.90;99.90
52791;DHT22;41253;46.856;-71.574;2022-08-25T04:05:05;18.80;99.90
52791;DHT22;41253;46.856;-71.574;2022-08-25T04:07:31;18.80;99.90
52791;DHT22;41253;46.856;-71.574;2022-08-25T04:09:58;18.70;99.90
52791;DHT22;41253;46.856;-71.574;2022-08-25T04:12:24;18.60;99.90
52791;DHT22;41253;46.856;-71.574;2022-08-25T04:14:51;18.60;99.90
52791;DHT22;41253;46.856;-71.574;2022-08-25T04:17:18;18.60;99.90
52791;DHT22;41253;46.856;-71.574;2022-08-25T04:19:44;18.60;99.90
52791;DHT22;41253;46.856;-71.574;2022-08-25T04:22:10;18.60;99.90
52791;DHT22;41253;46.856;-71.574;2022-08-25T04:24:37;18.50;99.90
52791;DHT22;41253;46.856;-71.574;2022-08-25T04:27:03;18.50;99.90
52791;DHT22;41253;46.856;-71.574;2022-08-25T04:29:30;18.60;99.90
52791;DHT22;41253;46.856;-71.574;2022-08-25T04:31:57;18.40;99.90
52791;DHT22;41253;46.856;-71.574;2022-08-25T04:34:24;18.30;99.90
52791;DHT22;41253;46.856;-71.574;2022-08-25T04:36:51;18.20;99.90
52791;DHT22;41253;46.856;-71.574;2022-08-25T04:39:19;18.10;99.90
52791;DHT22;41253;46.856;-71.574;2022-08-25T04:41:47;18.10;99.90
52791;DHT22;41253;46.856;-71.574;2022-08-25T04:44:13;18.10;99.90
52791;DHT22;41253;46.856;-71.574;2022-08-25T04:46:40;18.10;99.90
52791;DHT22;41253;46.856;-71.574;2022-08-25T04:49:06;18.00;99.90
52791;DHT22;41253;46.856;-71.574;2022-08-25T04:51:36;18.00;99.90
52791;DHT22;41253;46.856;-71.574;2022-08-25T04:54:10;17.90;99.90
52791;DHT22;41253;46.856;-71.574;2022-08-25T04:56:39;17.90;99.90
52791;DHT22;41253;46.856;-71.574;2022-08-25T04:59:10;17.80;99.90
52791;DHT22;41253;46.856;-71.574;2022-08-25T05:01:38;17.70;99.90
52791;DHT22;41253;46.856;-71.574;2022-08-25T05:04:06;17.70;99.90
52791;DHT22;41253;46.856;-71.574;2022-08-25T05:06:33;17.70;99.90
52791;DHT22;41253;46.856;-71.574;2022-08-25T05:09:01;17.60;99.90
52791;DHT22;41253;46.856;-71.574;2022-08-25T05:11:28;17.60;99.90
52791;DHT22;41253;46.856;-71.574;2022-08-25T05:13:55;17.60;99.90
52791;DHT22;41253;46.856;-71.574;2022-08-25T05:16:24;17.50;99.90
52791;DHT22;41253;46.856;-71.574;2022-08-25T05:18:51;17.50;99.90
52791;DHT22;41253;46.856;-71.574;2022-08-25T05:21:21;17.50;99.90
52791;DHT22;41253;46.856;-71.574;2022-08-25T05:23:48;17.60;99.90
52791;DHT22;41253;46.856;-71.574;2022-08-25T05:26:18;17.60;99.90
52791;DHT22;41253;46.856;-71.574;2022-08-25T05:28:45;17.60;99.90
52791;DHT22;41253;46.856;-71.574;2022-08-25T05:31:13;17.60;99.90
52791;DHT22;41253;46.856;-71.574;2022-08-25T05:33:40;17.50;99.90
52791;DHT22;41253;46.856;-71.574;2022-08-25T05:36:08;17.50;99.90
52791;DHT22;41253;46.856;-71.574;2022-08-25T05:38:35;17.50;99.90
52791;DHT22;41253;46.856;-71.574;2022-08-25T05:41:08;17.40;99.90
52791;DHT22;41253;46.856;-71.574;2022-08-25T05:43:39;17.40;99.90
52791;DHT22;41253;46.856;-71.574;2022-08-25T05:46:06;17.50;99.90
52791;DHT22;41253;46.856;-71.574;2022-08-25T05:48:33;17.40;99.90
52791;DHT22;41253;46.856;-71.574;2022-08-25T05:51:01;17.10;99.90
52791;DHT22;41253;46.856;-71.574;2022-08-25T05:53:29;17.00;99.90
52791;DHT22;41253;46.856;-71.574;2022-08-25T05:55:57;16.90;99.90
52791;DHT22;41253;46.856;-71.574;2022-08-25T05:58:25;16.80;99.90
52791;DHT22;41253;46.856;-71.574;2022-08-25T06:00:53;16.70;99.90
52791;DHT22;41253;46.856;-71.574;2022-08-25T06:03:19;16.70;99.90
52791;DHT22;41253;46.856;-71.574;2022-08-25T06:05:46;16.50;99.90
52791;DHT22;41253;46.856;-71.574;2022-08-25T06:08:13;16.60;99.90
52791;DHT22;41253;46.856;-71.574;2022-08-25T06:10:41;16.60;99.90
52791;DHT22;41253;46.856;-71.574;2022-08-25T06:13:08;16.70;99.90
52791;DHT22;41253;46.856;-71.574;2022-08-25T06:15:34;16.50;99.90
52791;DHT22;41253;46.856;-71.574;2022-08-25T06:18:01;16.40;99.90
52791;DHT22;41253;46.856;-71.574;2022-08-25T06:20:29;16.50;99.90
52791;DHT22;41253;46.856;-71.574;2022-08-25T06:22:56;16.50;99.90
52791;DHT22;41253;46.856;-71.574;2022-08-25T06:25:24;16.40;99.90
52791;DHT22;41253;46.856;-71.574;2022-08-25T06:27:52;16.40;99.90
52791;DHT22;41253;46.856;-71.574;2022-08-25T06:30:21;16.50;99.90
52791;DHT22;41253;46.856;-71.574;2022-08-25T06:32:47;16.40;99.90
52791;DHT22;41253;46.856;-71.574;2022-08-25T06:35:16;16.30;99.90
52791;DHT22;41253;46.856;-71.574;2022-08-25T06:37:44;16.00;99.90
52791;DHT22;41253;46.856;-71.574;2022-08-25T06:40:11;15.80;99.90
52791;DHT22;41253;46.856;-71.574;2022-08-25T06:42:38;15.60;99.90
52791;DHT22;41253;46.856;-71.574;2022-08-25T06:45:05;15.50;99.90
52791;DHT22;41253;46.856;-71.574;2022-08-25T06:47:32;15.60;99.90
52791;DHT22;41253;46.856;-71.574;2022-08-25T06:49:58;15.70;99.90
52791;DHT22;41253;46.856;-71.574;2022-08-25T06:52:24;15.80;99.90
52791;DHT22;41253;46.856;-71.574;2022-08-25T06:54:51;15.80;99.90
52791;DHT22;41253;46.856;-71.574;2022-08-25T06:57:18;15.80;99.90
52791;DHT22;41253;46.856;-71.574;2022-08-25T06:59:44;15.80;99.90
52791;DHT22;41253;46.856;-71.574;2022-08-25T07:02:10;15.80;99.90
52791;DHT22;41253;46.856;-71.574;2022-08-25T07:04:37;15.50;99.90
52791;DHT22;41253;46.856;-71.574;2022-08-25T07:07:03;15.50;99.90
52791;DHT22;41253;46.856;-71.574;2022-08-25T07:09:30;15.30;99.90
52791;DHT22;41253;46.856;-71.574;2022-08-25T07:11:56;15.10;99.90
52791;DHT22;41253;46.856;-71.574;2022-08-25T07:14:23;15.10;99.90
52791;DHT22;41253;46.856;-71.574;2022-08-25T07:16:49;15.10;99.90
52791;DHT22;41253;46.856;-71.574;2022-08-25T07:19:16;15.00;99.90
52791;DHT22;41253;46.856;-71.574;2022-08-25T07:21:47;15.00;99.90
52791;DHT22;41253;46.856;-71.574;2022-08-25T07:24:14;15.10;99.90
52791;DHT22;41253;46.856;-71.574;2022-08-25T07:26:42;15.20;99.90
52791;DHT22;41253;46.856;-71.574;2022-08-25T07:29:25;15.20;99.90
52791;DHT22;41253;46.856;-71.574;2022-08-25T07:31:54;15.30;99.90
52791;DHT22;41253;46.856;-71.574;2022-08-25T07:34:20;15.20;99.90
52791;DHT22;41253;46.856;-71.574;2022-08-25T07:37:05;15.00;99.90
52791;DHT22;41253;46.856;-71.574;2022-08-25T07:39:32;14.90;99.90
52791;DHT22;41253;46.856;-71.574;2022-08-25T07:41:59;14.80;99.90
52791;DHT22;41253;46.856;-71.574;2022-08-25T07:44:26;14.80;99.90
52791;DHT22;41253;46.856;-71.574;2022-08-25T07:46:52;14.70;99.90
52791;DHT22;41253;46.856;-71.574;2022-08-25T07:49:20;14.70;99.90
52791;DHT22;41253;46.856;-71.574;2022-08-25T07:51:47;14.80;99.90
52791;DHT22;41253;46.856;-71.574;2022-08-25T07:54:13;14.90;99.90
52791;DHT22;41253;46.856;-71.574;2022-08-25T07:56:40;15.00;99.90
52791;DHT22;41253;46.856;-71.574;2022-08-25T07:59:08;15.20;99.90
52791;DHT22;41253;46.856;-71.574;2022-08-25T08:01:35;15.20;99.90
52791;DHT22;41253;46.856;-71.574;2022-08-25T08:04:03;15.10;99.90
52791;DHT22;41253;46.856;-71.574;2022-08-25T08:06:30;15.00;99.90
52791;DHT22;41253;46.856;-71.574;2022-08-25T08:08:57;15.00;99.90
52791;DHT22;41253;46.856;-71.574;2022-08-25T08:11:28;14.90;99.90
52791;DHT22;41253;46.856;-71.574;2022-08-25T08:13:56;15.00;99.90
52791;DHT22;41253;46.856;-71.574;2022-08-25T08:16:25;15.00;99.90
52791;DHT22;41253;46.856;-71.574;2022-08-25T08:18:52;14.90;99.90
52791;DHT22;41253;46.856;-71.574;2022-08-25T08:21:27;14.90;99.90
52791;DHT22;41253;46.856;-71.574;2022-08-25T08:23:54;14.90;99.90
52791;DHT22;41253;46.856;-71.574;2022-08-25T08:26:21;14.90;99.90
52791;DHT22;41253;46.856;-71.574;2022-08-25T08:28:49;14.70;99.90
52791;DHT22;41253;46.856;-71.574;2022-08-25T08:31:22;14.60;99.90
52791;DHT22;41253;46.856;-71.574;2022-08-25T08:33:49;14.70;99.90
52791;DHT22;41253;46.856;-71.574;2022-08-25T08:36:17;14.70;99.90
52791;DHT22;41253;46.856;-71.574;2022-08-25T08:38:44;14.80;99.90
52791;DHT22;41253;46.856;-71.574;2022-08-25T08:41:35;14.60;99.90
52791;DHT22;41253;46.856;-71.574;2022-08-25T08:52:41;14.50;99.90
52791;DHT22;41253;46.856;-71.574;2022-08-25T08:57:48;14.40;99.90
52791;DHT22;41253;46.856;-71.574;2022-08-25T09:00:15;14.40;99.90
52791;DHT22;41253;46.856;-71.574;2022-08-25T09:03:04;14.40;99.90
52791;DHT22;41253;46.856;-71.574;2022-08-25T09:05:40;14.40;99.90
52791;DHT22;41253;46.856;-71.574;2022-08-25T09:08:10;14.40;99.90
52791;DHT22;41253;46.856;-71.574;2022-08-25T09:10:56;14.40;99.90
52791;DHT22;41253;46.856;-71.574;2022-08-25T09:25:02;14.20;99.90
52791;DHT22;41253;46.856;-71.574;2022-08-25T09:31:02;14.20;99.90
52791;DHT22;41253;46.856;-71.574;2022-08-25T09:33:33;14.20;99.90
52791;DHT22;41253;46.856;-71.574;2022-08-25T09:36:00;14.10;99.90
52791;DHT22;41253;46.856;-71.574;2022-08-25T09:38:27;14.00;99.90
52791;DHT22;41253;46.856;-71.574;2022-08-25T09:40:58;13.90;99.90
52791;DHT22;41253;46.856;-71.574;2022-08-25T09:46:12;13.80;99.90
52791;DHT22;41253;46.856;-71.574;2022-08-25T09:53:55;13.80;99.90
52791;DHT22;41253;46.856;-71.574;2022-08-25T09:56:25;13.70;99.90
52791;DHT22;41253;46.856;-71.574;2022-08-25T09:58:54;13.70;99.90
52791;DHT22;41253;46.856;-71.574;2022-08-25T10:01:25;13.60;99.90
52791;DHT22;41253;46.856;-71.574;2022-08-25T10:04:03;13.50;99.90
52791;DHT22;41253;46.856;-71.574;2022-08-25T10:06:44;13.40;99.90
52791;DHT22;41253;46.856;-71.574;2022-08-25T10:09:24;13.40;99.90
52791;DHT22;41253;46.856;-71.574;2022-08-25T10:11:51;13.30;99.90
52791;DHT22;41253;46.856;-71.574;2022-08-25T10:14:31;13.30;99.90
52791;DHT22;41253;46.856;-71.574;2022-08-25T10:17:30;13.40;99.90
52791;DHT22;41253;46.856;-71.574;2022-08-25T10:22:39;13.30;99.90
52791;DHT22;41253;46.856;-71.574;2022-08-25T10:25:09;13.20;99.90
52791;DHT22;41253;46.856;-71.574;2022-08-25T10:28:21;13.10;99.90
52791;DHT22;41253;46.856;-71.574;2022-08-25T10:30:50;13.20;99.90
52791;DHT22;41253;46.856;-71.574;2022-08-25T10:39:31;13.30;99.90
52791;DHT22;41253;46.856;-71.574;2022-08-25T10:44:53;13.60;99.90
52791;DHT22;41253;46.856;-71.574;2022-08-25T10:50:40;13.60;99.90
52791;DHT22;41253;46.856;-71.574;2022-08-25T10:56:26;13.10;99.90
52791;DHT22;41253;46.856;-71.574;2022-08-25T10:58:49;13.20;99.90
52791;DHT22;41253;46.856;-71.574;2022-08-25T11:04:25;13.30;99.90
52791;DHT22;41253;46.856;-71.574;2022-08-25T11:07:19;13.40;99.90
52791;DHT22;41253;46.856;-71.574;2022-08-25T11:09:49;13.40;99.90
52791;DHT22;41253;46.856;-71.574;2022-08-25T11:12:34;13.50;99.90
52791;DHT22;41253;46.856;-71.574;2022-08-25T11:15:11;13.60;99.90
52791;DHT22;41253;46.856;-71.574;2022-08-25T11:17:49;13.70;99.90
52791;DHT22;41253;46.856;-71.574;2022-08-25T11:20:20;13.70;99.90
52791;DHT22;41253;46.856;-71.574;2022-08-25T11:23:05;13.70;99.90
52791;DHT22;41253;46.856;-71.574;2022-08-25T11:25:44;13.60;99.90
52791;DHT22;41253;46.856;-71.574;2022-08-25T11:28:20;13.40;99.90
52791;DHT22;41253;46.856;-71.574;2022-08-25T11:30:50;13.60;99.90
52791;DHT22;41253;46.856;-71.574;2022-08-25T11:33:18;13.70;99.90
52791;DHT22;41253;46.856;-71.574;2022-08-25T11:35:53;13.90;99.90
52791;DHT22;41253;46.856;-71.574;2022-08-25T11:38:53;14.10;99.90
52791;DHT22;41253;46.856;-71.574;2022-08-25T11:52:55;14.70;99.90
52791;DHT22;41253;46.856;-71.574;2022-08-25T11:55:47;14.90;99.90
52791;DHT22;41253;46.856;-71.574;2022-08-25T11:58:36;14.70;99.90
52791;DHT22;41253;46.856;-71.574;2022-08-25T12:01:07;14.90;99.90
52791;DHT22;41253;46.856;-71.574;2022-08-25T12:08:53;15.40;99.90
52791;DHT22;41253;46.856;-71.574;2022-08-25T12:11:48;15.70;99.90
52791;DHT22;41253;46.856;-71.574;2022-08-25T12:14:36;15.50;99.90
52791;DHT22;41253;46.856;-71.574;2022-08-25T12:17:20;15.50;99.90
52791;DHT22;41253;46.856;-71.574;2022-08-25T12:19:51;15.40;99.90
52791;DHT22;41253;46.856;-71.574;2022-08-25T12:24:55;15.70;99.90
52791;DHT22;41253;46.856;-71.574;2022-08-25T12:30:17;16.10;99.90
52791;DHT22;41253;46.856;-71.574;2022-08-25T12:33:07;16.40;99.90
52791;DHT22;41253;46.856;-71.574;2022-08-25T12:38:11;16.30;99.90
52791;DHT22;41253;46.856;-71.574;2022-08-25T12:43:23;16.90;99.90
52791;DHT22;41253;46.856;-71.574;2022-08-25T12:45:53;17.20;99.90
52791;DHT22;41253;46.856;-71.574;2022-08-25T12:53:36;18.00;99.90
52791;DHT22;41253;46.856;-71.574;2022-08-25T12:56:15;17.80;99.90
52791;DHT22;41253;46.856;-71.574;2022-08-25T13:01:56;18.20;99.90
52791;DHT22;41253;46.856;-71.574;2022-08-25T13:10:33;18.50;99.90
52791;DHT22;41253;46.856;-71.574;2022-08-25T13:16:03;18.70;99.90
52791;DHT22;41253;46.856;-71.574;2022-08-25T13:18:34;18.70;99.90
52791;DHT22;41253;46.856;-71.574;2022-08-25T13:21:27;18.70;99.90
52791;DHT22;41253;46.856;-71.574;2022-08-25T13:23:58;19.10;99.90
52791;DHT22;41253;46.856;-71.574;2022-08-25T13:26:29;19.00;99.90
52791;DHT22;41253;46.856;-71.574;2022-08-25T13:29:20;19.20;99.90
52791;DHT22;41253;46.856;-71.574;2022-08-25T13:34:26;19.10;99.90
52791;DHT22;41253;46.856;-71.574;2022-08-25T13:36:53;19.50;99.90
52791;DHT22;41253;46.856;-71.574;2022-08-25T13:39:38;19.10;99.90
52791;DHT22;41253;46.856;-71.574;2022-08-25T13:42:10;19.20;99.90
52791;DHT22;41253;46.856;-71.574;2022-08-25T13:44:38;19.40;99.90
52791;DHT22;41253;46.856;-71.574;2022-08-25T13:47:14;19.20;99.90
52791;DHT22;41253;46.856;-71.574;2022-08-25T13:49:44;19.20;99.90
52791;DHT22;41253;46.856;-71.574;2022-08-25T13:52:25;19.30;99.90
52791;DHT22;41253;46.856;-71.574;2022-08-25T13:54:59;19.00;99.90
52791;DHT22;41253;46.856;-71.574;2022-08-25T13:57:28;19.10;99.90
52791;DHT22;41253;46.856;-71.574;2022-08-25T14:00:00;19.10;99.90
52791;DHT22;41253;46.856;-71.574;2022-08-25T14:05:10;19.30;99.90
52791;DHT22;41253;46.856;-71.574;2022-08-25T14:07:38;19.40;99.90
52791;DHT22;41253;46.856;-71.574;2022-08-25T14:10:10;19.50;99.90
52791;DHT22;41253;46.856;-71.574;2022-08-25T14:13:27;19.40;99.90
52791;DHT22;41253;46.856;-71.574;2022-08-25T14:15:53;19.50;99.90
52791;DHT22;41253;46.856;-71.574;2022-08-25T14:18:22;19.70;99.90
52791;DHT22;41253;46.856;-71.574;2022-08-25T14:20:51;19.80;99.90
52791;DHT22;41253;46.856;-71.574;2022-08-25T14:23:22;20.00;99.90
52791;DHT22;41253;46.856;-71.574;2022-08-25T14:25:50;19.90;99.90
52791;DHT22;41253;46.856;-71.574;2022-08-25T14:28:20;20.00;99.90
52791;DHT22;41253;46.856;-71.574;2022-08-25T14:30:52;20.10;99.90
52791;DHT22;41253;46.856;-71.574;2022-08-25T14:33:24;20.20;99.90
52791;DHT22;41253;46.856;-71.574;2022-08-25T14:35:53;19.80;99.90
52791;DHT22;41253;46.856;-71.574;2022-08-25T14:38:21;19.40;99.90
52791;DHT22;41253;46.856;-71.574;2022-08-25T14:40:47;19.20;99.90
52791;DHT22;41253;46.856;-71.574;2022-08-25T14:43:14;19.40;99.90
52791;DHT22;41253;46.856;-71.574;2022-08-25T14:45:43;20.10;99.90
52791;DHT22;41253;46.856;-71.574;2022-08-25T14:48:18;19.80;99.90
52791;DHT22;41253;46.856;-71.574;2022-08-25T14:50:50;19.10;99.90
52791;DHT22;41253;46.856;-71.574;2022-08-25T14:53:16;19.50;99.90
52791;DHT22;41253;46.856;-71.574;2022-08-25T14:55:43;20.10;99.90
52791;DHT22;41253;46.856;-71.574;2022-08-25T14:58:09;20.50;99.90
52791;DHT22;41253;46.856;-71.574;2022-08-25T15:00:40;20.50;99.90
52791;DHT22;41253;46.856;-71.574;2022-08-25T15:03:12;20.20;99.90
52791;DHT22;41253;46.856;-71.574;2022-08-25T15:05:40;20.30;99.90
52791;DHT22;41253;46.856;-71.574;2022-08-25T15:08:08;20.00;99.90
52791;DHT22;41253;46.856;-71.574;2022-08-25T15:10:53;19.80;99.90
52791;DHT22;41253;46.856;-71.574;2022-08-25T15:13:20;19.90;99.90
52791;DHT22;41253;46.856;-71.574;2022-08-25T15:15:46;20.20;99.90
52791;DHT22;41253;46.856;-71.574;2022-08-25T15:18:13;20.50;99.90
52791;DHT22;41253;46.856;-71.574;2022-08-25T15:20:41;21.00;99.90
52791;DHT22;41253;46.856;-71.574;2022-08-25T15:23:08;20.80;99.90
52791;DHT22;41253;46.856;-71.574;2022-08-25T15:25:35;21.40;99.90
52791;DHT22;41253;46.856;-71.574;2022-08-25T15:28:05;21.20;99.90
52791;DHT22;41253;46.856;-71.574;2022-08-25T15:30:34;21.70;99.90
52791;DHT22;41253;46.856;-71.574;2022-08-25T15:33:01;21.70;99.90
52791;DHT22;41253;46.856;-71.574;2022-08-25T15:35:27;22.10;99.90
52791;DHT22;41253;46.856;-71.574;2022-08-25T15:37:53;21.40;99.90
52791;DHT22;41253;46.856;-71.574;2022-08-25T15:40:20;21.40;99.90
52791;DHT22;41253;46.856;-71.574;2022-08-25T15:42:46;20.30;99.90
52791;DHT22;41253;46.856;-71.574;2022-08-25T15:45:13;20.00;99.90
52791;DHT22;41253;46.856;-71.574;2022-08-25T15:47:39;20.00;99.90
52791;DHT22;41253;46.856;-71.574;2022-08-25T15:50:09;21.20;99.90
52791;DHT22;41253;46.856;-71.574;2022-08-25T15:52:35;20.70;99.90
52791;DHT22;41253;46.856;-71.574;2022-08-25T15:55:03;20.50;99.90
52791;DHT22;41253;46.856;-71.574;2022-08-25T15:57:29;20.30;99.90
52791;DHT22;41253;46.856;-71.574;2022-08-25T15:59:55;19.90;99.90
52791;DHT22;41253;46.856;-71.574;2022-08-25T16:02:22;19.60;99.90
52791;DHT22;41253;46.856;-71.574;2022-08-25T16:04:48;19.60;99.90
52791;DHT22;41253;46.856;-71.574;2022-08-25T16:07:16;19.60;99.90
52791;DHT22;41253;46.856;-71.574;2022-08-25T16:20:23;20.00;99.90
52791;DHT22;41253;46.856;-71.574;2022-08-25T16:22:50;21.70;99.90
52791;DHT22;41253;46.856;-71.574;2022-08-25T16:25:16;21.20;99.90
52791;DHT22;41253;46.856;-71.574;2022-08-25T16:27:42;21.40;99.90
52791;DHT22;41253;46.856;-71.574;2022-08-25T16:30:11;20.90;99.90
52791;DHT22;41253;46.856;-71.574;2022-08-25T16:32:38;21.10;99.90
52791;DHT22;41253;46.856;-71.574;2022-08-25T16:35:05;21.70;99.90
52791;DHT22;41253;46.856;-71.574;2022-08-25T16:37:33;21.30;99.90
52791;DHT22;41253;46.856;-71.574;2022-08-25T16:40:00;21.50;99.90
52791;DHT22;41253;46.856;-71.574;2022-08-25T16:42:27;21.70;99.90
52791;DHT22;41253;46.856;-71.574;2022-08-25T16:44:54;22.30;99.90
52791;DHT22;41253;46.856;-71.574;2022-08-25T16:47:21;21.80;99.90
52791;DHT22;41253;46.856;-71.574;2022-08-25T16:49:47;21.40;99.90
52791;DHT22;41253;46.856;-71.574;2022-08-25T16:52:14;21.50;99.90
52791;DHT22;41253;46.856;-71.574;2022-08-25T16:54:59;21.20;99.90
52791;DHT22;41253;46.856;-71.574;2022-08-25T16:57:39;21.20;99.90
52791;DHT22;41253;46.856;-71.574;2022-08-25T17:00:09;21.70;99.90
52791;DHT22;41253;46.856;-71.574;2022-08-25T17:02:38;21.80;99.90
52791;DHT22;41253;46.856;-71.574;2022-08-25T17:05:06;21.00;99.90
52791;DHT22;41253;46.856;-71.574;2022-08-25T17:07:32;20.30;99.90
52791;DHT22;41253;46.856;-71.574;2022-08-25T17:09:59;20.10;99.90
52791;DHT22;41253;46.856;-71.574;2022-08-25T17:12:26;20.20;99.90
52791;DHT22;41253;46.856;-71.574;2022-08-25T17:14:52;20.90;99.90
52791;DHT22;41253;46.856;-71.574;2022-08-25T17:17:19;21.40;99.90
52791;DHT22;41253;46.856;-71.574;2022-08-25T17:19:46;21.70;99.90